createdAt,value
2022-08-22T00:00:44.188Z,100284.13
2022-08-22T00:02:58.606Z,100215.09
2022-08-22T00:03:08.439Z,100202.19
2022-08-22T00:03:28.511Z,100275.19
2022-08-22T00:06:09.241Z,100274.91
2022-08-22T00:08:44.154Z,100279.50
2022-08-22T00:11:17.816Z,100278.72
2022-08-22T00:13:59.243Z,100281.22
2022-08-22T00:16:34.672Z,100279.59
2022-08-22T00:19:08.628Z,100277.72
2022-08-22T00:21:43.375Z,100279.38
2022-08-22T00:24:16.173Z,100277.81
2022-08-22T00:26:47.118Z,100272.97
2022-08-22T00:29:16.738Z,100268.31
2022-08-22T00:31:49.874Z,100268.75
2022-08-22T00:34:24.241Z,100263.69
2022-08-22T00:37:00.507Z,100259.88
2022-08-22T00:39:31.612Z,100261.25
2022-08-22T00:42:31.656Z,100265.84
2022-08-22T00:45:31.895Z,100259.63
2022-08-22T00:48:11.087Z,100259.22
2022-08-22T00:51:14.029Z,100255.84
2022-08-22T00:53:52.147Z,100254.47
2022-08-22T00:56:37.842Z,100260.44
2022-08-22T00:59:23.968Z,100251.94
2022-08-22T01:01:55.289Z,100256.50
2022-08-22T01:04:42.819Z,100250.78
2022-08-22T01:07:20.502Z,100258.59
2022-08-22T01:09:55.148Z,100258.59
2022-08-22T01:12:36.302Z,100255.59
2022-08-22T01:15:07.651Z,100257.28
2022-08-22T01:17:52.251Z,100254.13
2022-08-22T01:20:54.620Z,100265.69
2022-08-22T01:23:44.166Z,100251.16
2022-08-22T01:26:54.289Z,100247.63
2022-08-22T01:29:42.497Z,100250.09
2022-08-22T01:32:34.679Z,100244.25
2022-08-22T01:35:26.483Z,100252.06
2022-08-22T01:38:02.560Z,100242.69
2022-08-22T01:41:10.582Z,100243.78
2022-08-22T01:44:00.019Z,100246.75
2022-08-22T01:46:39.935Z,100245.16
2022-08-22T01:49:13.746Z,100244.56
2022-08-22T01:51:48.066Z,100245.69
2022-08-22T01:54:26.010Z,100241.13
2022-08-22T01:56:55.442Z,100241.91
2022-08-22T01:59:27.569Z,100236.78
2022-08-22T02:02:07.959Z,100240.03
2022-08-22T02:04:42.337Z,100242.78
2022-08-22T02:07:15.903Z,100242.50
2022-08-22T02:09:49.354Z,100241.25
2022-08-22T02:12:31.533Z,100237.22
2022-08-22T02:15:17.237Z,100243.44
2022-08-22T02:18:14.464Z,100242.16
2022-08-22T02:20:46.804Z,100234.09
2022-08-22T02:23:27.082Z,100236.28
2022-08-22T02:25:59.123Z,100233.03
2022-08-22T02:28:34.993Z,100234.38
2022-08-22T02:31:06.580Z,100243.84
2022-08-22T02:33:52.721Z,100229.28
2022-08-22T02:36:23.809Z,100238.44
2022-08-22T02:39:01.193Z,100238.78
2022-08-22T02:41:33.062Z,100238.28
2022-08-22T02:44:05.667Z,100238.03
2022-08-22T02:46:42.659Z,100247.13
2022-08-22T02:49:15.230Z,100239.66
2022-08-22T02:51:48.441Z,100236.44
2022-08-22T02:54:23.697Z,100240.22
2022-08-22T02:56:56.755Z,100242.94
2022-08-22T02:59:33.363Z,100236.47
2022-08-22T03:02:28.860Z,100238.91
2022-08-22T03:04:59.150Z,100238.41
2022-08-22T03:07:37.132Z,100230.91
2022-08-22T03:10:16.605Z,100230.09
2022-08-22T03:12:53.599Z,100228.19
2022-08-22T03:15:28.899Z,100236.00
2022-08-22T03:18:04.604Z,100237.09
2022-08-22T03:20:55.651Z,100230.09
2022-08-22T03:23:30.998Z,100233.91
2022-08-22T03:26:07.532Z,100229.34
2022-08-22T03:28:39.842Z,100228.06
2022-08-22T03:31:29.345Z,100234.22
2022-08-22T03:34:23.410Z,100228.00
2022-08-22T03:37:02.748Z,100229.91
2022-08-22T03:39:49.847Z,100231.28
2022-08-22T03:42:47.787Z,100232.66
2022-08-22T03:45:29.303Z,100231.88
2022-08-22T03:48:16.460Z,100227.03
2022-08-22T03:51:05.978Z,100230.84
2022-08-22T03:54:12.806Z,100228.94
2022-08-22T03:57:20.113Z,100232.44
2022-08-22T04:00:18.426Z,100229.75
2022-08-22T04:03:06.538Z,100235.44
2022-08-22T04:05:58.948Z,100231.94
2022-08-22T04:08:54.930Z,100234.09
2022-08-22T04:11:39.573Z,100231.97
2022-08-22T04:14:25.686Z,100242.72
2022-08-22T04:17:39.458Z,100251.09
2022-08-22T04:20:39.429Z,100241.94
2022-08-22T04:23:30.417Z,100252.16
2022-08-22T04:26:01.416Z,100247.03
2022-08-22T04:28:42.403Z,100250.56
2022-08-22T04:31:13.327Z,100251.91
2022-08-22T04:33:44.359Z,100238.44
2022-08-22T04:36:18.997Z,100244.63
2022-08-22T04:38:50.983Z,100244.09
2022-08-22T04:41:24.536Z,100246.53
2022-08-22T04:43:56.223Z,100252.16
2022-08-22T04:46:33.617Z,100257.56
2022-08-22T04:49:08.179Z,100250.31
2022-08-22T04:51:43.122Z,100255.69
2022-08-22T04:54:22.800Z,100254.88
2022-08-22T04:56:57.929Z,100258.66
2022-08-22T04:59:27.495Z,100258.91
2022-08-22T05:02:06.206Z,100260.00
2022-08-22T05:04:37.281Z,100265.63
2022-08-22T05:07:10.297Z,100262.38
2022-08-22T05:09:40.896Z,100265.38
2022-08-22T05:12:12.119Z,100264.81
2022-08-22T05:14:43.163Z,100258.38
2022-08-22T05:17:15.657Z,100259.19
2022-08-22T05:19:50.582Z,100265.06
2022-08-22T05:22:26.587Z,100260.25
2022-08-22T05:24:58.702Z,100253.50
2022-08-22T05:27:29.013Z,100268.31
2022-08-22T05:30:04.874Z,100259.41
2022-08-22T05:32:35.617Z,100262.66
2022-08-22T05:35:06.268Z,100264.25
2022-08-22T05:37:42.607Z,100261.50
2022-08-22T05:40:13.495Z,100263.88
2022-08-22T05:42:42.786Z,100263.94
2022-08-22T05:45:16.421Z,100266.38
2022-08-22T05:47:47.741Z,100263.38
2022-08-22T05:50:19.290Z,100266.78
2022-08-22T05:53:02.736Z,100268.34
2022-08-22T05:55:33.817Z,100275.63
2022-08-22T05:58:31.284Z,100272.84
2022-08-22T06:01:02.600Z,100270.97
2022-08-22T06:03:34.107Z,100279.59
2022-08-22T06:06:06.306Z,100278.50
2022-08-22T06:08:40.069Z,100272.47
2022-08-22T06:11:10.369Z,100273.25
2022-08-22T06:13:41.786Z,100273.44
2022-08-22T06:16:12.912Z,100278.41
2022-08-22T06:18:43.872Z,100279.84
2022-08-22T06:21:15.194Z,100285.22
2022-08-22T06:23:48.362Z,100284.25
2022-08-22T06:26:21.022Z,100294.31
2022-08-22T06:28:55.403Z,100285.78
2022-08-22T06:31:26.843Z,100293.19
2022-08-22T06:33:58.429Z,100287.75
2022-08-22T06:36:34.086Z,100286.88
2022-08-22T06:39:14.782Z,100289.75
2022-08-22T06:41:47.486Z,100287.72
2022-08-22T06:44:17.829Z,100293.84
2022-08-22T06:46:47.459Z,100294.84
2022-08-22T06:49:16.911Z,100295.47
2022-08-22T06:51:46.670Z,100307.00
2022-08-22T06:54:21.681Z,100302.34
2022-08-22T06:56:52.021Z,100303.94
2022-08-22T06:59:23.384Z,100307.53
2022-08-22T07:01:54.239Z,100318.91
2022-08-22T07:04:26.553Z,100310.94
2022-08-22T07:06:57.506Z,100321.09
2022-08-22T07:09:29.894Z,100317.75
2022-08-22T07:12:00.370Z,100322.00
2022-08-22T07:14:32.352Z,100315.00
2022-08-22T07:17:02.693Z,100325.47
2022-08-22T07:19:35.018Z,100314.19
2022-08-22T07:22:14.462Z,100323.47
2022-08-22T07:24:50.846Z,100319.34
2022-08-22T07:27:25.382Z,100326.06
2022-08-22T07:30:01.306Z,100320.44
2022-08-22T07:32:32.255Z,100325.28
2022-08-22T07:35:09.602Z,100318.97
2022-08-22T07:38:02.293Z,100309.59
2022-08-22T07:40:37.309Z,100311.09
2022-08-22T07:43:13.495Z,100316.63
2022-08-22T07:45:46.282Z,100320.13
2022-08-22T07:48:26.237Z,100326.47
2022-08-22T07:51:04.554Z,100312.38
2022-08-22T07:53:39.654Z,100314.41
2022-08-22T07:56:14.311Z,100311.16
2022-08-22T07:58:43.757Z,100321.44
2022-08-22T08:01:13.531Z,100325.09
2022-08-22T08:03:43.017Z,100317.66
2022-08-22T08:06:13.285Z,100321.44
2022-08-22T08:08:44.288Z,100319.13
2022-08-22T08:11:17.392Z,100312.28
2022-08-22T08:13:49.296Z,100323.34
2022-08-22T08:16:19.944Z,100318.22
2022-08-22T08:18:50.462Z,100327.97
2022-08-22T08:21:28.808Z,100317.03
2022-08-22T08:23:58.318Z,100327.81
2022-08-22T08:26:32.806Z,100318.44
2022-08-22T08:28:59.906Z,100327.69
2022-08-22T08:31:31.966Z,100316.69
2022-08-22T08:34:03.893Z,100321.25
2022-08-22T08:36:42.202Z,100323.91
2022-08-22T08:39:21.602Z,100320.31
2022-08-22T08:42:13.068Z,100317.91
2022-08-22T08:45:10.810Z,100323.38
2022-08-22T08:47:47.973Z,100314.06
2022-08-22T08:50:29.375Z,100315.81
2022-08-22T08:53:21.915Z,100314.19
2022-08-22T08:55:53.874Z,100326.22
2022-08-22T08:58:40.474Z,100323.59
2022-08-22T09:01:20.508Z,100315.13
2022-08-22T09:04:32.706Z,100314.44
2022-08-22T09:07:27.807Z,100316.03
2022-08-22T09:10:21.776Z,100314.13
2022-08-22T09:13:12.344Z,100313.03
2022-08-22T09:16:05.000Z,100310.72
2022-08-22T09:19:03.999Z,100301.84
2022-08-22T09:22:00.902Z,100294.03
2022-08-22T09:24:52.458Z,100298.84
2022-08-22T09:27:29.274Z,100301.38
2022-08-22T09:30:05.636Z,100294.00
2022-08-22T09:32:45.629Z,100285.38
2022-08-22T09:35:22.506Z,100288.56
2022-08-22T09:38:08.522Z,100290.44
2022-08-22T09:40:42.579Z,100288.53
2022-08-22T09:43:13.329Z,100284.94
2022-08-22T09:45:52.791Z,100290.69
2022-08-22T09:48:36.255Z,100283.09
2022-08-22T09:51:32.464Z,100283.94
2022-08-22T09:54:22.984Z,100279.81
2022-08-22T09:57:15.940Z,100279.38
2022-08-22T10:00:22.427Z,100280.53
2022-08-22T10:03:04.076Z,100276.22
2022-08-22T10:05:44.062Z,100276.84
2022-08-22T10:08:19.889Z,100273.31
2022-08-22T10:11:03.630Z,100272.81
2022-08-22T10:13:40.609Z,100268.31
2022-08-22T10:16:22.915Z,100275.38
2022-08-22T10:18:57.960Z,100267.72
2022-08-22T10:21:37.325Z,100268.66
2022-08-22T10:24:10.528Z,100262.13
2022-08-22T10:26:44.879Z,100257.97
2022-08-22T10:29:34.932Z,100261.66
2022-08-22T10:32:14.454Z,100251.06
2022-08-22T10:34:47.223Z,100258.19
2022-08-22T10:37:25.297Z,100248.19
2022-08-22T10:39:58.623Z,100249.25
2022-08-22T10:42:31.218Z,100244.19
2022-08-22T10:45:23.975Z,100239.97
2022-08-22T10:48:35.149Z,100237.13
2022-08-22T10:51:13.099Z,100242.31
2022-08-22T10:53:58.646Z,100242.13
2022-08-22T10:56:31.422Z,100246.63
2022-08-22T10:59:06.064Z,100242.25
2022-08-22T11:01:42.108Z,100236.06
2022-08-22T11:04:14.938Z,100235.19
2022-08-22T11:06:47.516Z,100228.13
2022-08-22T11:09:31.195Z,100218.66
2022-08-22T11:12:05.386Z,100231.53
2022-08-22T11:15:10.195Z,100227.78
2022-08-22T11:18:13.040Z,100218.00
2022-08-22T11:20:48.209Z,100217.78
2022-08-22T11:23:22.609Z,100220.53
2022-08-22T11:25:56.934Z,100210.97
2022-08-22T11:28:56.896Z,100216.25
2022-08-22T11:31:47.305Z,100204.66
2022-08-22T11:34:28.271Z,100211.81
2022-08-22T11:36:59.515Z,100211.34
2022-08-22T11:39:31.955Z,100214.72
2022-08-22T11:42:08.164Z,100208.75
2022-08-22T11:44:50.356Z,100212.97
2022-08-22T11:47:26.602Z,100202.00
2022-08-22T11:50:00.852Z,100211.47
2022-08-22T11:52:51.940Z,100194.47
2022-08-22T11:55:33.218Z,100199.31
2022-08-22T11:58:13.417Z,100190.69
2022-08-22T12:00:49.362Z,100189.25
2022-08-22T12:03:38.074Z,100182.06
2022-08-22T12:06:11.677Z,100181.72
2022-08-22T12:09:10.555Z,100174.25
2022-08-22T12:11:43.843Z,100181.81
2022-08-22T12:14:22.274Z,100188.72
2022-08-22T12:17:03.627Z,100177.31
2022-08-22T12:19:35.682Z,100180.22
2022-08-22T12:22:50.488Z,100176.78
2022-08-22T12:25:25.125Z,100177.75
2022-08-22T12:28:03.267Z,100174.91
2022-08-22T12:30:37.910Z,100164.31
2022-08-22T12:33:22.962Z,100160.75
2022-08-22T12:35:58.443Z,100168.72
2022-08-22T12:38:37.827Z,100157.72
2022-08-22T12:41:35.171Z,100158.22
2022-08-22T12:44:23.065Z,100151.88
2022-08-22T12:47:04.582Z,100152.31
2022-08-22T12:49:40.477Z,100152.38
2022-08-22T12:52:21.365Z,100140.16
2022-08-22T12:55:26.507Z,100148.59
2022-08-22T12:58:02.004Z,100140.28
2022-08-22T13:00:34.723Z,100139.84
2022-08-22T13:03:09.586Z,100138.53
2022-08-22T13:05:40.848Z,100143.19
2022-08-22T13:08:12.686Z,100138.16
2022-08-22T13:10:45.383Z,100132.69
2022-08-22T13:13:17.270Z,100137.03
2022-08-22T13:16:00.085Z,100127.31
2022-08-22T13:18:36.153Z,100125.53
2022-08-22T13:21:11.493Z,100129.47
2022-08-22T13:23:45.135Z,100123.69
2022-08-22T13:26:32.982Z,100125.09
2022-08-22T13:29:26.111Z,100127.59
2022-08-22T13:31:59.226Z,100126.44
2022-08-22T13:34:40.557Z,100118.31
2022-08-22T13:37:15.327Z,100115.50
2022-08-22T13:39:46.568Z,100114.44
2022-08-22T13:42:27.912Z,100117.84
2022-08-22T13:45:02.211Z,100116.44
2022-08-22T13:47:34.369Z,100113.47
2022-08-22T13:50:14.828Z,100108.31
2022-08-22T13:52:49.385Z,100105.25
2022-08-22T13:55:27.559Z,100101.50
2022-08-22T13:58:02.315Z,100095.25
2022-08-22T14:01:21.655Z,100096.66
2022-08-22T14:03:57.931Z,100100.44
2022-08-22T14:06:38.374Z,100094.47
2022-08-22T14:09:31.547Z,100094.31
2022-08-22T14:12:11.997Z,100095.06
2022-08-22T14:14:43.259Z,100085.50
2022-08-22T14:17:17.791Z,100090.75
2022-08-22T14:19:58.914Z,100084.63
2022-08-22T14:22:35.013Z,100082.28
2022-08-22T14:25:07.521Z,100083.91
2022-08-22T14:27:39.734Z,100084.22
2022-08-22T14:30:15.097Z,100078.66
2022-08-22T14:32:46.919Z,100072.31
2022-08-22T14:35:34.879Z,100080.63
2022-08-22T14:38:19.708Z,100068.00
2022-08-22T14:40:49.602Z,100064.31
2022-08-22T14:43:22.454Z,100061.28
2022-08-22T14:45:57.841Z,100062.94
2022-08-22T14:48:35.431Z,100054.53
2022-08-22T14:51:10.152Z,100053.28
2022-08-22T14:53:42.945Z,100049.19
2022-08-22T14:56:14.842Z,100045.97
2022-08-22T14:58:49.806Z,100050.13
2022-08-22T15:01:23.812Z,100049.84
2022-08-22T15:03:55.255Z,100047.81
2022-08-22T15:06:37.879Z,100047.13
2022-08-22T15:09:10.918Z,100045.06
2022-08-22T15:11:42.156Z,100036.66
2022-08-22T15:14:16.045Z,100038.34
2022-08-22T15:16:48.674Z,100046.56
2022-08-22T15:19:25.136Z,100042.16
2022-08-22T15:21:54.655Z,100034.03
2022-08-22T15:24:28.494Z,100034.59
2022-08-22T15:26:58.334Z,100033.34
2022-08-22T15:29:29.125Z,100035.44
2022-08-22T15:32:00.301Z,100033.22
2022-08-22T15:34:34.987Z,100027.28
2022-08-22T15:37:29.631Z,100035.25
2022-08-22T15:40:33.157Z,100025.78
2022-08-22T15:43:21.525Z,100026.88
2022-08-22T15:45:51.650Z,100025.13
2022-08-22T15:48:32.583Z,100026.22
2022-08-22T15:51:04.662Z,100021.28
2022-08-22T15:54:03.581Z,100016.09
2022-08-22T15:57:07.563Z,100014.81
2022-08-22T15:59:53.610Z,100022.94
2022-08-22T16:02:27.092Z,100018.09
2022-08-22T16:05:03.240Z,100019.06
2022-08-22T16:07:41.853Z,100015.75
2022-08-22T16:10:14.142Z,100013.03
2022-08-22T16:12:47.737Z,100014.91
2022-08-22T16:15:47.061Z,100011.31
2022-08-22T16:18:46.407Z,100005.63
2022-08-22T16:21:16.098Z,100003.81
2022-08-22T16:24:15.429Z,100008.53
2022-08-22T16:26:44.937Z,100006.19
2022-08-22T16:29:37.646Z,100005.75
2022-08-22T16:32:11.634Z,100003.19
2022-08-22T16:34:45.929Z,100008.84
2022-08-22T16:37:37.164Z,100007.59
2022-08-22T16:40:15.237Z,100005.00
2022-08-22T16:42:46.433Z,100000.28
2022-08-22T16:45:23.839Z,100006.06
2022-08-22T16:47:58.378Z,100010.06
2022-08-22T16:50:31.319Z,100000.63
2022-08-22T16:53:03.017Z,100007.34
2022-08-22T16:55:55.298Z,100006.00
2022-08-22T16:58:59.140Z,100004.09
2022-08-22T17:01:44.747Z,100002.28
2022-08-22T17:04:19.853Z,100010.31
2022-08-22T17:07:17.731Z,100006.78
2022-08-22T17:10:12.174Z,100003.47
2022-08-22T17:12:52.969Z,100004.38
2022-08-22T17:15:28.643Z,100015.63
2022-08-22T17:18:11.745Z,100008.69
2022-08-22T17:20:45.452Z,100012.81
2022-08-22T17:23:18.193Z,100008.19
2022-08-22T17:25:56.273Z,100012.03
2022-08-22T17:28:34.290Z,100014.31
2022-08-22T17:31:05.128Z,100011.44
2022-08-22T17:33:52.343Z,100018.31
2022-08-22T17:36:26.579Z,100014.47
2022-08-22T17:39:13.342Z,100015.94
2022-08-22T17:41:47.789Z,100017.16
2022-08-22T17:44:20.105Z,100008.59
2022-08-22T17:46:51.411Z,100018.31
2022-08-22T17:49:46.534Z,100012.41
2022-08-22T17:52:18.118Z,100023.13
2022-08-22T17:54:50.986Z,100013.25
2022-08-22T17:57:27.747Z,100024.28
2022-08-22T17:59:59.576Z,100021.47
2022-08-22T18:02:31.319Z,100018.84
2022-08-22T18:05:06.207Z,100026.16
2022-08-22T18:07:48.723Z,100031.50
2022-08-22T18:10:22.834Z,100019.06
2022-08-22T18:12:57.086Z,100025.78
2022-08-22T18:15:29.498Z,100027.66
2022-08-22T18:18:00.984Z,100027.59
2022-08-22T18:20:34.800Z,100031.16
2022-08-22T18:23:06.609Z,100029.53
2022-08-22T18:26:00.801Z,100035.59
2022-08-22T18:28:33.815Z,100032.44
2022-08-22T18:31:05.281Z,100031.50
2022-08-22T18:33:37.679Z,100037.69
2022-08-22T18:36:13.771Z,100032.63
2022-08-22T18:38:51.399Z,100039.09
2022-08-22T18:41:26.606Z,100032.34
2022-08-22T18:43:56.056Z,100037.00
2022-08-22T18:46:43.979Z,100035.78
2022-08-22T18:49:40.292Z,100042.19
2022-08-22T18:52:40.537Z,100041.13
2022-08-22T18:55:42.475Z,100046.28
2022-08-22T18:58:36.286Z,100041.69
2022-08-22T19:01:47.714Z,100045.03
2022-08-22T19:04:56.046Z,100050.06
2022-08-22T19:07:38.692Z,100047.72
2022-08-22T19:10:37.151Z,100053.19
2022-08-22T19:13:35.929Z,100056.41
2022-08-22T19:16:15.456Z,100061.41
2022-08-22T19:18:45.580Z,100062.53
2022-08-22T19:21:35.593Z,100061.25
2022-08-22T19:24:11.003Z,100069.28
2022-08-22T19:26:42.815Z,100075.88
2022-08-22T19:30:02.751Z,100081.63
2022-08-22T19:33:03.304Z,100080.97
2022-08-22T19:35:40.585Z,100081.50
2022-08-22T19:38:10.624Z,100087.09
2022-08-22T19:40:58.566Z,100079.38
2022-08-22T19:43:31.648Z,100093.16
2022-08-22T19:46:03.704Z,100087.88
2022-08-22T19:48:36.399Z,100089.47
2022-08-22T19:51:10.776Z,100093.84
2022-08-22T19:53:46.015Z,100091.91
2022-08-22T19:56:23.167Z,100099.59
2022-08-22T19:59:02.019Z,100093.00
2022-08-22T20:01:56.287Z,100090.94
2022-08-22T20:04:44.550Z,100092.56
2022-08-22T20:07:18.871Z,100095.75
2022-08-22T20:09:50.526Z,100088.38
2022-08-22T20:12:26.756Z,100093.34
2022-08-22T20:14:57.620Z,100090.47
2022-08-22T20:17:40.851Z,100090.78
2022-08-22T20:20:18.970Z,100089.81
2022-08-22T20:22:52.925Z,100093.84
2022-08-22T20:25:43.187Z,100096.06
2022-08-22T20:28:31.182Z,100096.53
2022-08-22T20:31:02.291Z,100097.81
2022-08-22T20:33:35.074Z,100095.09
2022-08-22T20:36:05.807Z,100097.06
2022-08-22T20:38:38.469Z,100098.00
2022-08-22T20:41:16.140Z,100100.41
2022-08-22T20:43:53.139Z,100101.50
2022-08-22T20:46:38.838Z,100101.66
2022-08-22T20:49:14.533Z,100105.00
2022-08-22T20:51:53.074Z,100101.50
2022-08-22T20:54:24.050Z,100104.53
2022-08-22T20:56:55.583Z,100103.56
2022-08-22T20:59:35.894Z,100111.88
2022-08-22T21:02:15.087Z,100106.13
2022-08-22T21:04:49.815Z,100098.75
2022-08-22T21:07:29.509Z,100102.44
2022-08-22T21:10:16.690Z,100102.28
2022-08-22T21:13:03.678Z,100097.31
2022-08-22T21:15:36.527Z,100110.13
2022-08-22T21:18:06.242Z,100102.97
2022-08-22T21:20:37.263Z,100102.81
2022-08-22T21:23:09.002Z,100108.41
2022-08-22T21:25:50.246Z,100107.59
2022-08-22T21:28:29.235Z,100113.03
2022-08-22T21:31:01.837Z,100105.03
2022-08-22T21:33:31.277Z,100105.69
2022-08-22T21:36:01.750Z,100107.72
2022-08-22T21:38:31.234Z,100111.41
2022-08-22T21:41:05.670Z,100111.84
2022-08-22T21:43:36.991Z,100109.88
2022-08-22T21:46:09.434Z,100109.50
2022-08-22T21:48:41.254Z,100108.31
2022-08-22T21:51:33.089Z,100104.44
2022-08-22T21:54:24.488Z,100115.25
2022-08-22T21:56:54.505Z,100127.19
2022-08-22T21:59:25.762Z,100128.63
2022-08-22T22:01:58.015Z,100122.25
2022-08-22T22:04:27.425Z,100124.19
2022-08-22T22:06:57.781Z,100131.41
2022-08-22T22:09:27.222Z,100131.25
2022-08-22T22:11:56.659Z,100133.53
2022-08-22T22:14:26.105Z,100140.19
2022-08-22T22:16:58.131Z,100140.88
2022-08-22T22:19:27.586Z,100138.31
2022-08-22T22:21:57.068Z,100153.00
2022-08-22T22:24:26.555Z,100152.28
2022-08-22T22:26:56.023Z,100156.59
2022-08-22T22:29:25.459Z,100151.47
2022-08-22T22:31:54.903Z,100153.34
2022-08-22T22:34:26.920Z,100157.66
2022-08-22T22:36:56.415Z,100157.34
2022-08-22T22:39:25.878Z,100155.53
2022-08-22T22:41:55.310Z,100161.88
2022-08-22T22:44:25.643Z,100156.88
2022-08-22T22:46:58.863Z,100162.91
2022-08-22T22:49:31.058Z,100166.50
2022-08-22T22:52:00.558Z,100169.41
2022-08-22T22:54:30.151Z,100164.50
2022-08-22T22:56:59.663Z,100168.94
2022-08-22T22:59:29.277Z,100171.34
2022-08-22T23:02:03.391Z,100170.63
2022-08-22T23:04:35.491Z,100172.56
2022-08-22T23:07:04.981Z,100165.03
2022-08-22T23:09:38.571Z,100168.53
2022-08-22T23:12:14.290Z,100172.66
2022-08-22T23:14:43.745Z,100178.75
2022-08-22T23:17:13.246Z,100168.84
2022-08-22T23:19:46.224Z,100174.84
2022-08-22T23:22:17.271Z,100188.06
2022-08-22T23:24:46.735Z,100198.69
2022-08-22T23:27:16.211Z,100191.56
2022-08-22T23:29:45.702Z,100201.81
2022-08-22T23:32:15.263Z,100203.78
2022-08-22T23:34:48.887Z,100203.59
2022-08-22T23:37:19.435Z,100203.38
2022-08-22T23:39:48.919Z,100206.16
2022-08-22T23:42:18.654Z,100211.25
2022-08-22T23:44:48.182Z,100205.00
2022-08-22T23:47:17.759Z,100208.41
2022-08-22T23:49:49.782Z,100207.09
2022-08-22T23:52:19.522Z,100205.34
2022-08-22T23:54:51.590Z,100202.44
2022-08-22T23:57:27.483Z,100204.47
2022-08-22T23:59:58.338Z,100204.63
